sensor_id;sensor_type;location;lat;lon;timestamp;temperature;humidity
47546;DHT22;50104;52.002;4.688;2023-09-19T00:00:37;15.80;81.40
47546;DHT22;50104;52.002;4.688;2023-09-19T00:05:39;15.80;81.40
47546;DHT22;50104;52.002;4.688;2023-09-19T00:10:40;15.70;81.40
47546;DHT22;50104;52.002;4.688;2023-09-19T00:15:44;15.70;81.30
47546;DHT22;50104;52.002;4.688;2023-09-19T00:20:49;15.70;81.40
47546;DHT22;50104;52.002;4.688;2023-09-19T00:25:50;15.70;81.40
47546;DHT22;50104;52.002;4.688;2023-09-19T00:30:51;15.70;81.30
47546;DHT22;50104;52.002;4.688;2023-09-19T00:35:53;15.70;81.10
47546;DHT22;50104;52.002;4.688;2023-09-19T00:40:54;15.70;80.80
47546;DHT22;50104;52.002;4.688;2023-09-19T00:45:57;15.70;80.70
47546;DHT22;50104;52.002;4.688;2023-09-19T00:51:02;15.70;80.20
47546;DHT22;50104;52.002;4.688;2023-09-19T00:56:05;15.60;80.10
47546;DHT22;50104;52.002;4.688;2023-09-19T01:01:07;15.60;80.20
47546;DHT22;50104;52.002;4.688;2023-09-19T01:06:08;15.60;80.30
47546;DHT22;50104;52.002;4.688;2023-09-19T01:11:18;15.50;80.10
47546;DHT22;50104;52.002;4.688;2023-09-19T01:16:38;15.50;80.00
47546;DHT22;50104;52.002;4.688;2023-09-19T01:22:00;15.40;80.10
47546;DHT22;50104;52.002;4.688;2023-09-19T01:32:21;15.40;80.30
47546;DHT22;50104;52.002;4.688;2023-09-19T01:37:22;15.30;80.60
47546;DHT22;50104;52.002;4.688;2023-09-19T01:47:56;15.30;81.00
47546;DHT22;50104;52.002;4.688;2023-09-19T01:58:34;15.40;81.50
47546;DHT22;50104;52.002;4.688;2023-09-19T02:03:40;15.40;81.60
47546;DHT22;50104;52.002;4.688;2023-09-19T02:08:41;15.40;81.30
47546;DHT22;50104;52.002;4.688;2023-09-19T02:13:42;15.50;81.10
47546;DHT22;50104;52.002;4.688;2023-09-19T02:18:43;15.50;81.00
47546;DHT22;50104;52.002;4.688;2023-09-19T02:23:45;15.50;80.80
47546;DHT22;50104;52.002;4.688;2023-09-19T02:28:47;15.50;80.70
47546;DHT22;50104;52.002;4.688;2023-09-19T02:33:48;15.40;80.60
47546;DHT22;50104;52.002;4.688;2023-09-19T02:38:49;15.40;80.40
47546;DHT22;50104;52.002;4.688;2023-09-19T02:43:51;15.40;80.30
47546;DHT22;50104;52.002;4.688;2023-09-19T02:48:52;15.40;80.30
47546;DHT22;50104;52.002;4.688;2023-09-19T02:53:55;15.40;80.30
47546;DHT22;50104;52.002;4.688;2023-09-19T02:58:56;15.30;80.30
47546;DHT22;50104;52.002;4.688;2023-09-19T03:03:57;15.30;80.40
47546;DHT22;50104;52.002;4.688;2023-09-19T03:08:57;15.30;80.70
47546;DHT22;50104;52.002;4.688;2023-09-19T03:14:00;15.30;81.00
47546;DHT22;50104;52.002;4.688;2023-09-19T03:19:01;15.30;81.40
47546;DHT22;50104;52.002;4.688;2023-09-19T03:24:02;15.30;81.70
47546;DHT22;50104;52.002;4.688;2023-09-19T03:29:06;15.30;81.90
47546;DHT22;50104;52.002;4.688;2023-09-19T03:34:09;15.30;82.10
47546;DHT22;50104;52.002;4.688;2023-09-19T03:39:09;15.40;82.20
47546;DHT22;50104;52.002;4.688;2023-09-19T03:44:11;15.40;82.10
47546;DHT22;50104;52.002;4.688;2023-09-19T03:49:11;15.40;82.00
47546;DHT22;50104;52.002;4.688;2023-09-19T03:54:12;15.40;81.90
47546;DHT22;50104;52.002;4.688;2023-09-19T03:59:13;15.40;81.80
47546;DHT22;50104;52.002;4.688;2023-09-19T04:04:14;15.40;81.70
47546;DHT22;50104;52.002;4.688;2023-09-19T04:09:15;15.40;81.80
47546;DHT22;50104;52.002;4.688;2023-09-19T04:14:16;15.30;81.80
47546;DHT22;50104;52.002;4.688;2023-09-19T04:19:17;15.30;82.00
47546;DHT22;50104;52.002;4.688;2023-09-19T04:24:18;15.30;82.00
47546;DHT22;50104;52.002;4.688;2023-09-19T04:29:19;15.30;82.20
47546;DHT22;50104;52.002;4.688;2023-09-19T04:34:20;15.30;82.20
47546;DHT22;50104;52.002;4.688;2023-09-19T04:39:21;15.30;82.30
47546;DHT22;50104;52.002;4.688;2023-09-19T04:44:25;15.30;82.40
47546;DHT22;50104;52.002;4.688;2023-09-19T04:49:26;15.20;82.70
47546;DHT22;50104;52.002;4.688;2023-09-19T04:54:27;15.20;82.80
47546;DHT22;50104;52.002;4.688;2023-09-19T04:59:27;15.20;82.80
47546;DHT22;50104;52.002;4.688;2023-09-19T05:04:29;15.20;82.90
47546;DHT22;50104;52.002;4.688;2023-09-19T05:09:29;15.20;83.10
47546;DHT22;50104;52.002;4.688;2023-09-19T05:14:30;15.20;83.30
47546;DHT22;50104;52.002;4.688;2023-09-19T05:19:31;15.20;83.30
47546;DHT22;50104;52.002;4.688;2023-09-19T05:24:32;15.20;83.40
47546;DHT22;50104;52.002;4.688;2023-09-19T05:29:33;15.30;83.30
47546;DHT22;50104;52.002;4.688;2023-09-19T05:34:33;15.30;83.30
47546;DHT22;50104;52.002;4.688;2023-09-19T05:39:34;15.30;83.30
47546;DHT22;50104;52.002;4.688;2023-09-19T05:44:35;15.30;83.30
47546;DHT22;50104;52.002;4.688;2023-09-19T05:49:36;15.30;83.30
47546;DHT22;50104;52.002;4.688;2023-09-19T05:54:38;15.30;83.40
47546;DHT22;50104;52.002;4.688;2023-09-19T05:59:39;15.30;83.50
47546;DHT22;50104;52.002;4.688;2023-09-19T06:04:40;15.30;83.60
47546;DHT22;50104;52.002;4.688;2023-09-19T06:09:41;15.30;83.70
47546;DHT22;50104;52.002;4.688;2023-09-19T06:14:42;15.30;84.00
47546;DHT22;50104;52.002;4.688;2023-09-19T06:19:42;15.40;84.20
47546;DHT22;50104;52.002;4.688;2023-09-19T06:24:47;15.40;84.50
47546;DHT22;50104;52.002;4.688;2023-09-19T06:29:48;15.40;84.60
47546;DHT22;50104;52.002;4.688;2023-09-19T06:34:52;15.40;84.80
47546;DHT22;50104;52.002;4.688;2023-09-19T06:39:54;15.50;84.80
47546;DHT22;50104;52.002;4.688;2023-09-19T06:44:55;15.50;85.00
47546;DHT22;50104;52.002;4.688;2023-09-19T06:49:56;15.50;85.00
47546;DHT22;50104;52.002;4.688;2023-09-19T06:54:57;15.60;84.90
47546;DHT22;50104;52.002;4.688;2023-09-19T06:59:58;15.70;84.90
47546;DHT22;50104;52.002;4.688;2023-09-19T07:04:58;15.70;84.80
47546;DHT22;50104;52.002;4.688;2023-09-19T07:09:59;15.80;84.60
47546;DHT22;50104;52.002;4.688;2023-09-19T07:15:00;15.80;84.50
47546;DHT22;50104;52.002;4.688;2023-09-19T07:20:02;15.90;84.40
47546;DHT22;50104;52.002;4.688;2023-09-19T07:25:08;16.00;84.50
47546;DHT22;50104;52.002;4.688;2023-09-19T07:30:09;16.10;84.40
47546;DHT22;50104;52.002;4.688;2023-09-19T07:35:12;16.10;84.40
47546;DHT22;50104;52.002;4.688;2023-09-19T07:40:12;16.20;84.10
47546;DHT22;50104;52.002;4.688;2023-09-19T07:45:13;16.30;84.10
47546;DHT22;50104;52.002;4.688;2023-09-19T07:50:16;16.40;84.00
47546;DHT22;50104;52.002;4.688;2023-09-19T07:55:22;16.50;83.90
47546;DHT22;50104;52.002;4.688;2023-09-19T08:00:26;16.60;84.00
47546;DHT22;50104;52.002;4.688;2023-09-19T08:05:27;16.70;84.00
47546;DHT22;50104;52.002;4.688;2023-09-19T08:10:28;16.80;84.00
47546;DHT22;50104;52.002;4.688;2023-09-19T08:15:35;16.90;83.80
47546;DHT22;50104;52.002;4.688;2023-09-19T08:20:36;17.00;83.50
47546;DHT22;50104;52.002;4.688;2023-09-19T08:25:38;17.10;83.40
47546;DHT22;50104;52.002;4.688;2023-09-19T08:30:40;17.20;83.10
47546;DHT22;50104;52.002;4.688;2023-09-19T08:35:41;17.30;83.20
47546;DHT22;50104;52.002;4.688;2023-09-19T08:40:43;17.40;83.00
47546;DHT22;50104;52.002;4.688;2023-09-19T08:45:44;17.60;83.10
47546;DHT22;50104;52.002;4.688;2023-09-19T08:51:03;17.70;82.70
47546;DHT22;50104;52.002;4.688;2023-09-19T08:56:09;17.80;82.00
47546;DHT22;50104;52.002;4.688;2023-09-19T09:01:11;17.90;81.60
47546;DHT22;50104;52.002;4.688;2023-09-19T09:06:14;18.00;80.90
47546;DHT22;50104;52.002;4.688;2023-09-19T09:11:17;18.10;80.80
47546;DHT22;50104;52.002;4.688;2023-09-19T09:16:18;18.20;80.90
47546;DHT22;50104;52.002;4.688;2023-09-19T09:21:19;18.20;80.50
47546;DHT22;50104;52.002;4.688;2023-09-19T09:26:41;18.30;80.20
47546;DHT22;50104;52.002;4.688;2023-09-19T09:31:45;18.40;80.40
47546;DHT22;50104;52.002;4.688;2023-09-19T09:36:48;18.40;80.10
47546;DHT22;50104;52.002;4.688;2023-09-19T09:41:48;18.50;80.00
47546;DHT22;50104;52.002;4.688;2023-09-19T09:46:49;18.60;79.60
47546;DHT22;50104;52.002;4.688;2023-09-19T09:51:59;18.70;79.40
47546;DHT22;50104;52.002;4.688;2023-09-19T09:57:05;18.80;79.40
47546;DHT22;50104;52.002;4.688;2023-09-19T10:02:28;18.90;79.20
47546;DHT22;50104;52.002;4.688;2023-09-19T10:07:31;19.00;78.80
47546;DHT22;50104;52.002;4.688;2023-09-19T10:12:52;19.10;78.40
47546;DHT22;50104;52.002;4.688;2023-09-19T10:17:56;19.20;78.50
47546;DHT22;50104;52.002;4.688;2023-09-19T10:23:00;19.40;78.40
47546;DHT22;50104;52.002;4.688;2023-09-19T10:28:01;19.60;77.30
47546;DHT22;50104;52.002;4.688;2023-09-19T10:33:04;19.70;76.60
47546;DHT22;50104;52.002;4.688;2023-09-19T10:38:10;19.80;76.70
47546;DHT22;50104;52.002;4.688;2023-09-19T10:43:18;20.00;76.70
47546;DHT22;50104;52.002;4.688;2023-09-19T10:48:20;20.10;75.40
47546;DHT22;50104;52.002;4.688;2023-09-19T10:53:27;20.30;75.30
47546;DHT22;50104;52.002;4.688;2023-09-19T10:58:31;20.50;75.50
47546;DHT22;50104;52.002;4.688;2023-09-19T11:03:38;20.60;74.10
47546;DHT22;50104;52.002;4.688;2023-09-19T11:09:03;20.60;73.80
47546;DHT22;50104;52.002;4.688;2023-09-19T11:19:20;20.80;73.30
47546;DHT22;50104;52.002;4.688;2023-09-19T11:29:30;21.00;72.90
47546;DHT22;50104;52.002;4.688;2023-09-19T11:34:38;21.00;72.70
47546;DHT22;50104;52.002;4.688;2023-09-19T11:39:39;21.00;72.30
47546;DHT22;50104;52.002;4.688;2023-09-19T11:44:40;21.10;72.60
47546;DHT22;50104;52.002;4.688;2023-09-19T11:49:41;21.00;72.00
47546;DHT22;50104;52.002;4.688;2023-09-19T11:54:44;21.00;72.00
47546;DHT22;50104;52.002;4.688;2023-09-19T11:59:47;20.90;72.30
47546;DHT22;50104;52.002;4.688;2023-09-19T12:04:53;20.80;72.30
47546;DHT22;50104;52.002;4.688;2023-09-19T12:10:04;20.70;72.50
47546;DHT22;50104;52.002;4.688;2023-09-19T12:15:07;20.60;72.80
47546;DHT22;50104;52.002;4.688;2023-09-19T12:20:09;20.60;73.10
47546;DHT22;50104;52.002;4.688;2023-09-19T12:25:14;20.50;73.30
47546;DHT22;50104;52.002;4.688;2023-09-19T12:30:17;20.50;73.60
47546;DHT22;50104;52.002;4.688;2023-09-19T12:35:32;20.50;73.80
47546;DHT22;50104;52.002;4.688;2023-09-19T12:40:36;20.60;74.20
47546;DHT22;50104;52.002;4.688;2023-09-19T12:45:39;20.60;74.30
47546;DHT22;50104;52.002;4.688;2023-09-19T12:51:00;20.70;74.10
47546;DHT22;50104;52.002;4.688;2023-09-19T12:56:06;20.80;74.00
47546;DHT22;50104;52.002;4.688;2023-09-19T13:01:14;20.90;74.10
47546;DHT22;50104;52.002;4.688;2023-09-19T13:06:16;21.00;74.00
47546;DHT22;50104;52.002;4.688;2023-09-19T13:11:18;21.10;73.80
47546;DHT22;50104;52.002;4.688;2023-09-19T13:16:19;21.20;73.30
47546;DHT22;50104;52.002;4.688;2023-09-19T13:21:32;21.20;72.90
47546;DHT22;50104;52.002;4.688;2023-09-19T13:26:38;21.30;72.90
47546;DHT22;50104;52.002;4.688;2023-09-19T13:31:39;21.30;72.50
47546;DHT22;50104;52.002;4.688;2023-09-19T13:36:42;21.30;72.60
47546;DHT22;50104;52.002;4.688;2023-09-19T13:41:47;21.30;72.50
47546;DHT22;50104;52.002;4.688;2023-09-19T13:46:48;21.20;72.70
47546;DHT22;50104;52.002;4.688;2023-09-19T13:51:49;21.20;72.10
47546;DHT22;50104;52.002;4.688;2023-09-19T13:56:50;21.10;72.20
47546;DHT22;50104;52.002;4.688;2023-09-19T14:01:50;21.10;72.50
47546;DHT22;50104;52.002;4.688;2023-09-19T14:06:53;21.00;72.50
47546;DHT22;50104;52.002;4.688;2023-09-19T14:11:55;20.90;72.70
47546;DHT22;50104;52.002;4.688;2023-09-19T14:16:56;20.90;72.60
47546;DHT22;50104;52.002;4.688;2023-09-19T14:21:57;20.80;73.20
47546;DHT22;50104;52.002;4.688;2023-09-19T14:26:57;20.70;73.80
47546;DHT22;50104;52.002;4.688;2023-09-19T14:31:59;20.60;74.40
47546;DHT22;50104;52.002;4.688;2023-09-19T14:37:00;20.50;74.90
47546;DHT22;50104;52.002;4.688;2023-09-19T14:42:01;20.30;75.10
47546;DHT22;50104;52.002;4.688;2023-09-19T14:47:03;20.30;75.30
47546;DHT22;50104;52.002;4.688;2023-09-19T14:52:08;20.20;75.30
47546;DHT22;50104;52.002;4.688;2023-09-19T14:57:10;20.10;75.30
47546;DHT22;50104;52.002;4.688;2023-09-19T15:02:11;20.10;75.10
47546;DHT22;50104;52.002;4.688;2023-09-19T15:07:11;20.00;75.40
47546;DHT22;50104;52.002;4.688;2023-09-19T15:12:13;20.00;75.50
47546;DHT22;50104;52.002;4.688;2023-09-19T15:17:14;20.00;75.40
47546;DHT22;50104;52.002;4.688;2023-09-19T15:22:16;19.90;75.20
47546;DHT22;50104;52.002;4.688;2023-09-19T15:27:17;19.90;75.10
47546;DHT22;50104;52.002;4.688;2023-09-19T15:32:20;19.90;75.20
47546;DHT22;50104;52.002;4.688;2023-09-19T15:37:21;19.80;75.30
47546;DHT22;50104;52.002;4.688;2023-09-19T15:42:22;19.90;75.40
47546;DHT22;50104;52.002;4.688;2023-09-19T15:47:23;19.80;75.60
47546;DHT22;50104;52.002;4.688;2023-09-19T15:52:24;19.80;75.60
47546;DHT22;50104;52.002;4.688;2023-09-19T15:57:26;19.80;75.90
47546;DHT22;50104;52.002;4.688;2023-09-19T16:02:28;19.80;76.10
47546;DHT22;50104;52.002;4.688;2023-09-19T16:07:29;19.80;77.20
47546;DHT22;50104;52.002;4.688;2023-09-19T16:12:30;19.70;77.90
47546;DHT22;50104;52.002;4.688;2023-09-19T16:17:32;19.60;78.30
47546;DHT22;50104;52.002;4.688;2023-09-19T16:22:33;19.50;78.40
47546;DHT22;50104;52.002;4.688;2023-09-19T16:27:33;19.40;78.80
47546;DHT22;50104;52.002;4.688;2023-09-19T16:32:34;19.30;79.00
47546;DHT22;50104;52.002;4.688;2023-09-19T16:37:37;19.20;79.30
47546;DHT22;50104;52.002;4.688;2023-09-19T16:42:38;19.20;79.40
47546;DHT22;50104;52.002;4.688;2023-09-19T16:47:39;19.10;79.90
47546;DHT22;50104;52.002;4.688;2023-09-19T16:52:40;19.10;80.20
47546;DHT22;50104;52.002;4.688;2023-09-19T16:57:41;19.00;80.50
47546;DHT22;50104;52.002;4.688;2023-09-19T17:02:46;19.00;80.60
47546;DHT22;50104;52.002;4.688;2023-09-19T17:07:47;18.90;80.80
47546;DHT22;50104;52.002;4.688;2023-09-19T17:12:48;18.90;81.00
47546;DHT22;50104;52.002;4.688;2023-09-19T17:17:49;18.80;81.20
47546;DHT22;50104;52.002;4.688;2023-09-19T17:22:50;18.80;81.70
47546;DHT22;50104;52.002;4.688;2023-09-19T17:27:51;18.70;81.90
47546;DHT22;50104;52.002;4.688;2023-09-19T17:32:51;18.60;82.30
47546;DHT22;50104;52.002;4.688;2023-09-19T17:37:52;18.60;82.70
47546;DHT22;50104;52.002;4.688;2023-09-19T17:42:53;18.50;82.80
47546;DHT22;50104;52.002;4.688;2023-09-19T17:47:53;18.50;83.10
47546;DHT22;50104;52.002;4.688;2023-09-19T17:52:56;18.40;83.20
47546;DHT22;50104;52.002;4.688;2023-09-19T17:57:58;18.30;83.70
47546;DHT22;50104;52.002;4.688;2023-09-19T18:03:01;18.30;83.80
47546;DHT22;50104;52.002;4.688;2023-09-19T18:08:04;18.20;84.20
47546;DHT22;50104;52.002;4.688;2023-09-19T18:13:05;18.20;84.40
47546;DHT22;50104;52.002;4.688;2023-09-19T18:18:06;18.20;84.60
47546;DHT22;50104;52.002;4.688;2023-09-19T18:23:08;18.10;84.70
47546;DHT22;50104;52.002;4.688;2023-09-19T18:28:08;18.10;84.70
47546;DHT22;50104;52.002;4.688;2023-09-19T18:33:10;18.10;85.10
47546;DHT22;50104;52.002;4.688;2023-09-19T18:38:11;18.00;85.30
47546;DHT22;50104;52.002;4.688;2023-09-19T18:43:12;18.00;85.30
47546;DHT22;50104;52.002;4.688;2023-09-19T18:48:12;18.00;85.60
47546;DHT22;50104;52.002;4.688;2023-09-19T18:53:14;18.00;85.40
47546;DHT22;50104;52.002;4.688;2023-09-19T18:58:15;18.00;85.60
47546;DHT22;50104;52.002;4.688;2023-09-19T19:03:15;18.00;85.50
47546;DHT22;50104;52.002;4.688;2023-09-19T19:08:17;18.00;85.40
47546;DHT22;50104;52.002;4.688;2023-09-19T19:13:19;18.00;85.50
47546;DHT22;50104;52.002;4.688;2023-09-19T19:18:20;18.00;85.50
47546;DHT22;50104;52.002;4.688;2023-09-19T19:23:21;18.00;85.60
47546;DHT22;50104;52.002;4.688;2023-09-19T19:28:22;18.00;85.70
47546;DHT22;50104;52.002;4.688;2023-09-19T19:33:24;17.90;85.60
47546;DHT22;50104;52.002;4.688;2023-09-19T19:38:25;18.00;85.70
47546;DHT22;50104;52.002;4.688;2023-09-19T19:43:27;18.00;85.50
47546;DHT22;50104;52.002;4.688;2023-09-19T19:48:28;18.00;85.60
47546;DHT22;50104;52.002;4.688;2023-09-19T19:53:29;18.00;85.50
47546;DHT22;50104;52.002;4.688;2023-09-19T19:58:31;18.00;85.70
47546;DHT22;50104;52.002;4.688;2023-09-19T20:03:36;18.00;85.70
47546;DHT22;50104;52.002;4.688;2023-09-19T20:08:37;18.00;85.90
47546;DHT22;50104;52.002;4.688;2023-09-19T20:13:37;18.00;85.70
47546;DHT22;50104;52.002;4.688;2023-09-19T20:18:40;18.00;86.70
47546;DHT22;50104;52.002;4.688;2023-09-19T20:23:43;18.00;86.90
47546;DHT22;50104;52.002;4.688;2023-09-19T20:28:45;18.00;86.70
47546;DHT22;50104;52.002;4.688;2023-09-19T20:33:45;18.00;86.90
47546;DHT22;50104;52.002;4.688;2023-09-19T20:38:46;18.00;86.80
47546;DHT22;50104;52.002;4.688;2023-09-19T20:43:47;18.00;86.80
47546;DHT22;50104;52.002;4.688;2023-09-19T20:48:48;18.00;86.70
47546;DHT22;50104;52.002;4.688;2023-09-19T20:53:49;18.00;86.70
47546;DHT22;50104;52.002;4.688;2023-09-19T20:58:49;18.00;86.60
47546;DHT22;50104;52.002;4.688;2023-09-19T21:03:50;18.00;86.50
47546;DHT22;50104;52.002;4.688;2023-09-19T21:08:51;18.00;86.60
47546;DHT22;50104;52.002;4.688;2023-09-19T21:13:52;18.00;86.60
47546;DHT22;50104;52.002;4.688;2023-09-19T21:18:53;18.10;86.70
47546;DHT22;50104;52.002;4.688;2023-09-19T21:23:54;18.10;86.70
47546;DHT22;50104;52.002;4.688;2023-09-19T21:28:55;18.10;86.60
47546;DHT22;50104;52.002;4.688;2023-09-19T21:33:56;18.10;86.60
47546;DHT22;50104;52.002;4.688;2023-09-19T21:38:56;18.10;86.60
47546;DHT22;50104;52.002;4.688;2023-09-19T21:43:58;18.10;86.70
47546;DHT22;50104;52.002;4.688;2023-09-19T21:48:59;18.20;86.50
47546;DHT22;50104;52.002;4.688;2023-09-19T21:54:03;18.20;86.50
47546;DHT22;50104;52.002;4.688;2023-09-19T21:59:04;18.20;86.40
